Time;durP1;ratioP1;P1;durP2;ratioP2;P2;SDS_P1;SDS_P2;PMS_P1;PMS_P2;Temp;Humidity;BMP_temperature;BMP_pressure;BME280_temperature;BME280_humidity;BME280_pressure;Samples;Min_cycle;Max_cycle;Signal;HPM_P1;HPM_P2
2024/01/13 00:02:00;;;;;;;6.03;1.33;;;;;;;;;;5072226;28;20024;-40
2024/01/13 00:04:27;;;;;;;9.38;2.05;;;;;;;;;;5074981;28;20067;-38
2024/01/13 00:06:54;;;;;;;5.97;1.25;;;;;;;;;;5075178;28;20032;-40
2024/01/13 00:09:21;;;;;;;7.07;1.40;;;;;;;;;;5075174;28;20077;-35
2024/01/13 00:11:48;;;;;;;7.82;1.98;;;;;;;;;;5075255;28;20035;-36
2024/01/13 00:14:15;;;;;;;5.13;1.60;;;;;;;;;;5075025;28;20101;-37
2024/01/13 00:16:42;;;;;;;4.18;1.38;;;;;;;;;;5075184;28;20029;-41
2024/01/13 00:19:09;;;;;;;7.35;1.60;;;;;;;;;;5075112;28;20474;-38
2024/01/13 00:21:36;;;;;;;4.70;1.67;;;;;;;;;;5074967;28;20360;-35
2024/01/13 00:24:03;;;;;;;7.15;1.38;;;;;;;;;;5074852;28;20089;-36
2024/01/13 00:26:30;;;;;;;6.13;1.50;;;;;;;;;;5074649;28;20055;-36
2024/01/13 00:28:57;;;;;;;5.95;1.40;;;;;;;;;;5075005;28;20025;-40
2024/01/13 00:31:24;;;;;;;6.18;1.50;;;;;;;;;;5074730;28;20390;-38
2024/01/13 00:33:51;;;;;;;7.18;1.60;;;;;;;;;;5074746;28;20029;-39
2024/01/13 00:36:18;;;;;;;8.18;1.50;;;;;;;;;;5074711;28;20367;-38
2024/01/13 00:38:45;;;;;;;7.20;1.40;;;;;;;;;;5074690;28;20029;-35
2024/01/13 00:41:12;;;;;;;5.25;1.60;;;;;;;;;;5074761;28;20031;-33
2024/01/13 00:43:39;;;;;;;4.43;1.63;;;;;;;;;;5074560;28;20048;-38
2024/01/13 00:46:06;;;;;;;7.45;2.25;;;;;;;;;;5074499;28;20121;-37
2024/01/13 00:48:35;;;;;;;10.77;2.17;;;;;;;;;;5074454;28;20475;-38
2024/01/13 00:51:03;;;;;;;7.18;1.70;;;;;;;;;;5074351;28;20033;-35
2024/01/13 00:53:30;;;;;;;7.07;1.50;;;;;;;;;;5074384;28;20431;-37
2024/01/13 00:55:57;;;;;;;4.95;1.67;;;;;;;;;;5074411;28;20028;-39
2024/01/13 00:58:24;;;;;;;5.47;1.77;;;;;;;;;;5074447;28;20067;-38
2024/01/13 01:00:51;;;;;;;10.68;1.67;;;;;;;;;;5074574;28;20024;-40
2024/01/13 01:03:18;;;;;;;6.57;1.33;;;;;;;;;;5074267;28;20021;-36
2024/01/13 01:05:45;;;;;;;4.13;1.17;;;;;;;;;;5074160;28;20028;-39
2024/01/13 01:08:12;;;;;;;6.47;1.70;;;;;;;;;;5074092;28;20374;-35
2024/01/13 01:10:39;;;;;;;7.18;1.85;;;;;;;;;;5074166;28;20025;-37
2024/01/13 01:13:06;;;;;;;5.00;1.58;;;;;;;;;;5072960;28;20498;-34
2024/01/13 01:15:33;;;;;;;7.65;1.50;;;;;;;;;;5073606;28;20078;-38
2024/01/13 01:18:00;;;;;;;8.45;1.50;;;;;;;;;;5074001;28;20024;-40
2024/01/13 01:20:27;;;;;;;4.55;1.42;;;;;;;;;;5073939;28;20025;-38
2024/01/13 01:22:54;;;;;;;6.80;1.70;;;;;;;;;;5073827;28;20440;-37
2024/01/13 01:25:21;;;;;;;8.02;1.48;;;;;;;;;;5073872;28;20093;-36
2024/01/13 01:27:48;;;;;;;5.47;1.30;;;;;;;;;;5073615;28;20051;-38
2024/01/13 01:30:15;;;;;;;6.00;1.45;;;;;;;;;;5073818;28;20356;-39
2024/01/13 01:32:42;;;;;;;5.80;1.60;;;;;;;;;;5073607;28;20031;-38
2024/01/13 01:35:09;;;;;;;8.82;1.67;;;;;;;;;;5073642;28;20471;-38
2024/01/13 01:37:36;;;;;;;7.28;2.00;;;;;;;;;;5073547;28;20448;-37
2024/01/13 01:40:04;;;;;;;8.90;2.65;;;;;;;;;;5073569;28;20024;-36
2024/01/13 01:42:31;;;;;;;7.03;3.40;;;;;;;;;;5073204;28;20028;-36
2024/01/13 01:44:58;;;;;;;12.80;6.05;;;;;;;;;;5071242;28;20028;-31
2024/01/13 01:47:25;;;;;;;22.98;7.00;;;;;;;;;;5072065;28;20040;-35
2024/01/13 01:49:52;;;;;;;34.08;16.35;;;;;;;;;;5069006;28;20035;-34
2024/01/13 01:52:19;;;;;;;27.08;13.25;;;;;;;;;;5071585;28;20036;-36
2024/01/13 01:54:46;;;;;;;27.77;10.05;;;;;;;;;;5072025;28;20131;-40
2024/01/13 01:57:15;;;;;;;24.33;10.02;;;;;;;;;;5072002;28;20021;-40
2024/01/13 01:59:42;;;;;;;23.23;9.80;;;;;;;;;;5061604;28;20039;-38
2024/01/13 02:02:09;;;;;;;20.52;9.50;;;;;;;;;;5059606;28;20029;-39
2024/01/13 02:04:37;;;;;;;13.10;6.55;;;;;;;;;;5066912;28;20025;-34
2024/01/13 02:07:04;;;;;;;12.05;5.55;;;;;;;;;;5069557;28;20067;-32
2024/01/13 02:09:31;;;;;;;13.38;5.53;;;;;;;;;;5066424;28;20028;-32
2024/01/13 02:11:58;;;;;;;13.10;5.03;;;;;;;;;;5069953;28;20060;-38
2024/01/13 02:14:25;;;;;;;16.85;4.65;;;;;;;;;;5058607;28;20031;-39
2024/01/13 02:16:53;;;;;;;10.15;4.55;;;;;;;;;;5069425;28;20098;-33
2024/01/13 02:19:20;;;;;;;10.45;4.25;;;;;;;;;;5065122;28;20095;-37
2024/01/13 02:21:47;;;;;;;12.35;4.30;;;;;;;;;;5064802;28;20025;-36
2024/01/13 02:24:14;;;;;;;14.45;3.60;;;;;;;;;;5066455;28;20080;-37
2024/01/13 02:26:41;;;;;;;8.77;3.35;;;;;;;;;;5067083;28;20060;-39
2024/01/13 02:29:08;;;;;;;9.98;4.32;;;;;;;;;;5059390;28;20029;-38
2024/01/13 02:31:35;;;;;;;12.82;4.60;;;;;;;;;;5060733;28;20467;-40
2024/01/13 02:34:01;;;;;;;10.80;4.13;;;;;;;;;;5071947;28;20095;-38
2024/01/13 02:36:28;;;;;;;12.98;4.60;;;;;;;;;;5071848;28;20029;-36
2024/01/13 02:38:55;;;;;;;14.18;6.28;;;;;;;;;;5071646;28;20032;-37
2024/01/13 02:41:23;;;;;;;16.23;5.72;;;;;;;;;;5071244;28;20028;-36
2024/01/13 02:43:50;;;;;;;9.82;5.15;;;;;;;;;;5071370;28;20032;-38
2024/01/13 02:46:17;;;;;;;12.55;5.78;;;;;;;;;;5064216;28;20036;-40
2024/01/13 02:48:45;;;;;;;13.70;8.32;;;;;;;;;;5069993;28;20033;-37
2024/01/13 02:51:14;;;;;;;19.25;10.65;;;;;;;;;;5071093;28;20028;-39
2024/01/13 02:53:41;;;;;;;21.10;10.07;;;;;;;;;;5064047;28;20041;-39
2024/01/13 02:56:08;;;;;;;15.15;9.15;;;;;;;;;;5063626;28;20077;-42
2024/01/13 02:58:35;;;;;;;15.07;5.82;;;;;;;;;;5069340;28;20517;-39
2024/01/13 03:01:06;;;;;;;13.60;6.10;;;;;;;;;;5060673;28;20021;-39
2024/01/13 03:03:36;;;;;;;14.90;7.40;;;;;;;;;;5069642;28;20394;-39
2024/01/13 03:06:04;;;;;;;14.40;6.20;;;;;;;;;;5069111;28;20032;-38
2024/01/13 03:08:31;;;;;;;11.43;6.00;;;;;;;;;;5071575;28;20078;-38
2024/01/13 03:10:58;;;;;;;9.18;4.32;;;;;;;;;;5069450;28;20033;-35
2024/01/13 03:13:25;;;;;;;13.60;4.65;;;;;;;;;;5061924;28;20028;-42
2024/01/13 03:15:52;;;;;;;11.73;3.90;;;;;;;;;;5063146;28;20104;-42
2024/01/13 03:18:19;;;;;;;10.05;3.83;;;;;;;;;;5069919;28;20068;-40
2024/01/13 03:20:46;;;;;;;12.70;3.75;;;;;;;;;;5068860;28;20032;-42
2024/01/13 03:23:13;;;;;;;8.20;3.40;;;;;;;;;;5070917;28;20025;-40
2024/01/13 03:25:40;;;;;;;12.77;3.90;;;;;;;;;;5070585;28;20036;-42
2024/01/13 03:28:07;;;;;;;9.38;3.65;;;;;;;;;;5070702;28;20403;-41
2024/01/13 03:30:36;;;;;;;17.60;3.83;;;;;;;;;;5070913;28;20025;-42
2024/01/13 03:33:03;;;;;;;11.52;3.83;;;;;;;;;;5070217;28;20091;-37
2024/01/13 03:35:31;;;;;;;14.82;2.90;;;;;;;;;;5070602;28;20017;-41
2024/01/13 03:37:58;;;;;;;12.45;3.35;;;;;;;;;;5068262;28;20024;-42
2024/01/13 03:40:25;;;;;;;9.13;3.60;;;;;;;;;;5068743;28;20398;-43
2024/01/13 03:42:53;;;;;;;13.68;3.53;;;;;;;;;;5070087;28;20047;-43
2024/01/13 03:45:20;;;;;;;10.40;3.63;;;;;;;;;;5070279;28;20024;-43
2024/01/13 03:47:47;;;;;;;14.82;3.88;;;;;;;;;;5070857;28;20094;-42
2024/01/13 03:50:14;;;;;;;10.55;3.03;;;;;;;;;;5070372;28;20024;-43
2024/01/13 03:52:42;;;;;;;8.18;2.72;;;;;;;;;;5069245;28;20021;-42
2024/01/13 03:55:09;;;;;;;10.27;2.55;;;;;;;;;;5070537;28;20020;-41
2024/01/13 03:57:36;;;;;;;9.80;2.67;;;;;;;;;;5070648;28;20408;-43
2024/01/13 04:00:03;;;;;;;11.55;2.83;;;;;;;;;;5068233;28;20047;-43
2024/01/13 04:02:31;;;;;;;9.82;2.63;;;;;;;;;;5070634;28;20024;-44
2024/01/13 04:04:58;;;;;;;8.45;2.75;;;;;;;;;;5070463;28;20020;-39
2024/01/13 04:07:25;;;;;;;10.52;3.85;;;;;;;;;;5070427;28;20032;-41
2024/01/13 04:09:52;;;;;;;10.38;2.95;;;;;;;;;;5070433;28;20025;-41
2024/01/13 04:12:19;;;;;;;10.18;3.70;;;;;;;;;;5070092;28;20024;-41
2024/01/13 04:14:46;;;;;;;11.23;3.38;;;;;;;;;;5070248;28;20107;-42
2024/01/13 04:17:14;;;;;;;13.23;3.13;;;;;;;;;;5070452;28;20059;-41
2024/01/13 04:19:41;;;;;;;10.05;2.83;;;;;;;;;;5070332;28;20044;-42
2024/01/13 04:22:08;;;;;;;9.50;4.00;;;;;;;;;;5070249;28;20024;-41
2024/01/13 04:24:35;;;;;;;9.05;3.50;;;;;;;;;;5068595;28;20043;-40
2024/01/13 04:27:03;;;;;;;10.40;3.50;;;;;;;;;;5067966;28;20097;-42
2024/01/13 04:29:30;;;;;;;7.55;3.15;;;;;;;;;;5070164;28;20028;-41
2024/01/13 04:31:57;;;;;;;8.45;3.13;;;;;;;;;;5070065;28;20029;-42
2024/01/13 04:34:25;;;;;;;6.43;2.50;;;;;;;;;;5069909;28;20391;-43
2024/01/13 04:36:52;;;;;;;4.72;2.05;;;;;;;;;;5070054;28;20020;-42
2024/01/13 04:39:19;;;;;;;10.77;2.35;;;;;;;;;;5069913;28;20024;-40
2024/01/13 04:41:48;;;;;;;6.35;2.13;;;;;;;;;;5070884;28;20028;-43
2024/01/13 04:44:15;;;;;;;5.30;1.95;;;;;;;;;;5069972;28;20035;-43
2024/01/13 04:46:42;;;;;;;4.30;1.92;;;;;;;;;;5070724;28;20032;-42
2024/01/13 04:49:10;;;;;;;5.45;2.08;;;;;;;;;;5071563;28;20032;-44
2024/01/13 04:51:37;;;;;;;6.25;2.00;;;;;;;;;;5072570;28;20033;-40
2024/01/13 04:54:04;;;;;;;9.85;2.00;;;;;;;;;;5072128;28;20067;-40
2024/01/13 04:56:31;;;;;;;5.03;1.50;;;;;;;;;;5069928;28;20025;-43
2024/01/13 04:58:58;;;;;;;6.45;1.70;;;;;;;;;;5071616;28;20039;-40
2024/01/13 05:01:25;;;;;;;5.07;1.70;;;;;;;;;;5072932;28;20032;-40
2024/01/13 05:03:52;;;;;;;5.03;1.40;;;;;;;;;;5072712;28;20095;-42
2024/01/13 05:06:19;;;;;;;2.60;1.40;;;;;;;;;;5072699;28;20043;-44
2024/01/13 05:08:46;;;;;;;7.55;1.60;;;;;;;;;;5073435;28;20382;-39
2024/01/13 05:11:13;;;;;;;5.13;1.58;;;;;;;;;;5073068;28;20107;-42
2024/01/13 05:13:40;;;;;;;5.35;1.70;;;;;;;;;;5072954;28;20101;-42
2024/01/13 05:16:07;;;;;;;3.72;1.40;;;;;;;;;;5072712;28;20127;-39
2024/01/13 05:18:34;;;;;;;7.32;1.95;;;;;;;;;;5073305;28;20040;-40
2024/01/13 05:21:01;;;;;;;4.65;1.60;;;;;;;;;;5073949;28;20111;-41
2024/01/13 05:23:28;;;;;;;4.00;1.70;;;;;;;;;;5072275;28;20064;-40
2024/01/13 05:25:55;;;;;;;5.78;1.70;;;;;;;;;;5073514;28;20037;-42
2024/01/13 05:28:22;;;;;;;3.50;1.63;;;;;;;;;;5073383;28;20049;-42
2024/01/13 05:30:49;;;;;;;5.03;1.52;;;;;;;;;;5073533;28;20024;-40
2024/01/13 05:33:17;;;;;;;8.40;2.10;;;;;;;;;;5073595;28;20020;-40
2024/01/13 05:35:44;;;;;;;4.03;1.65;;;;;;;;;;5073538;28;20033;-42
2024/01/13 05:38:11;;;;;;;4.45;1.40;;;;;;;;;;5073598;28;20494;-40
2024/01/13 05:40:43;;;;;;;6.20;1.52;;;;;;;;;;5073041;28;20474;-43
2024/01/13 05:43:11;;;;;;;5.03;1.50;;;;;;;;;;5072005;28;20027;-42
2024/01/13 05:45:38;;;;;;;9.05;1.55;;;;;;;;;;5072996;28;20064;-37
2024/01/13 05:48:05;;;;;;;5.57;1.80;;;;;;;;;;5072747;28;20039;-40
2024/01/13 05:50:32;;;;;;;7.57;1.60;;;;;;;;;;5072932;28;20024;-41
2024/01/13 05:52:59;;;;;;;3.20;1.30;;;;;;;;;;5073330;28;20037;-42
2024/01/13 05:55:26;;;;;;;5.88;1.20;;;;;;;;;;5073401;28;20025;-38
2024/01/13 05:57:53;;;;;;;4.38;1.20;;;;;;;;;;5073184;28;20021;-40
2024/01/13 06:00:20;;;;;;;4.32;1.40;;;;;;;;;;5072582;28;20021;-44
2024/01/13 06:02:47;;;;;;;6.32;1.38;;;;;;;;;;5080001;28;20393;-40
2024/01/13 06:05:14;;;;;;;5.57;1.23;;;;;;;;;;5093378;28;20100;-41
2024/01/13 06:07:41;;;;;;;2.00;0.95;;;;;;;;;;5093377;28;20111;-41
2024/01/13 06:10:08;;;;;;;3.13;0.98;;;;;;;;;;5093160;28;20020;-43
2024/01/13 06:12:35;;;;;;;3.22;0.90;;;;;;;;;;5093109;28;20020;-40
2024/01/13 06:15:02;;;;;;;3.33;0.90;;;;;;;;;;5093148;28;20054;-40
2024/01/13 06:17:29;;;;;;;4.30;1.00;;;;;;;;;;5083317;28;20017;-38
2024/01/13 06:19:56;;;;;;;1.80;0.90;;;;;;;;;;5072293;28;20032;-43
2024/01/13 06:22:23;;;;;;;2.28;0.70;;;;;;;;;;5072414;28;20107;-42
2024/01/13 06:24:50;;;;;;;5.03;1.17;;;;;;;;;;5072558;28;20524;-41
2024/01/13 06:27:17;;;;;;;4.20;1.00;;;;;;;;;;5072140;28;20132;-42
2024/01/13 06:29:44;;;;;;;2.83;0.75;;;;;;;;;;5072535;28;20024;-38
2024/01/13 06:32:11;;;;;;;4.55;1.10;;;;;;;;;;5072493;28;20041;-38
2024/01/13 06:34:38;;;;;;;2.97;1.15;;;;;;;;;;5072524;28;20016;-40
2024/01/13 06:37:05;;;;;;;5.68;1.13;;;;;;;;;;5072361;28;20033;-41
2024/01/13 06:39:32;;;;;;;2.83;1.10;;;;;;;;;;5072353;28;20032;-44
2024/01/13 06:41:59;;;;;;;3.65;1.10;;;;;;;;;;5072367;28;20021;-40
2024/01/13 06:44:26;;;;;;;3.15;1.23;;;;;;;;;;5072408;28;20032;-42
2024/01/13 06:46:53;;;;;;;2.97;1.00;;;;;;;;;;5072012;28;20028;-44
2024/01/13 06:49:20;;;;;;;3.80;1.00;;;;;;;;;;5072259;28;20024;-43
2024/01/13 06:51:47;;;;;;;6.88;1.23;;;;;;;;;;5072197;28;20029;-42
2024/01/13 06:54:14;;;;;;;5.03;1.00;;;;;;;;;;5072230;28;20477;-40
2024/01/13 06:56:41;;;;;;;3.30;1.10;;;;;;;;;;5072094;28;20060;-37
2024/01/13 06:59:09;;;;;;;2.78;0.93;;;;;;;;;;5072035;28;20021;-41
2024/01/13 07:01:35;;;;;;;1.88;0.85;;;;;;;;;;5072132;28;20110;-38
2024/01/13 07:04:02;;;;;;;4.63;1.15;;;;;;;;;;5071883;28;20028;-40
2024/01/13 07:06:29;;;;;;;4.55;1.08;;;;;;;;;;5071767;28;20051;-42
2024/01/13 07:08:57;;;;;;;4.05;0.90;;;;;;;;;;5071852;28;20025;-38
2024/01/13 07:11:26;;;;;;;3.30;0.95;;;;;;;;;;5070427;28;20494;-38
2024/01/13 07:13:53;;;;;;;3.13;1.15;;;;;;;;;;5071507;28;20086;-42
2024/01/13 07:16:20;;;;;;;2.97;0.80;;;;;;;;;;5071945;28;20025;-39
2024/01/13 07:18:46;;;;;;;2.95;1.10;;;;;;;;;;5071727;28;20025;-42
2024/01/13 07:21:13;;;;;;;4.53;1.10;;;;;;;;;;5071764;28;20074;-41
2024/01/13 07:23:43;;;;;;;3.13;1.00;;;;;;;;;;5071651;28;20044;-39
2024/01/13 07:26:10;;;;;;;3.30;1.00;;;;;;;;;;5071356;28;20026;-42
2024/01/13 07:28:37;;;;;;;4.50;1.00;;;;;;;;;;5071701;28;20024;-41
2024/01/13 07:31:04;;;;;;;4.45;1.00;;;;;;;;;;5071530;28;20036;-40
2024/01/13 07:33:31;;;;;;;3.45;1.08;;;;;;;;;;5071540;28;20020;-43
2024/01/13 07:35:58;;;;;;;2.20;0.82;;;;;;;;;;5071649;28;20020;-42
2024/01/13 07:38:25;;;;;;;4.18;1.20;;;;;;;;;;5071587;28;20017;-42
2024/01/13 07:40:52;;;;;;;4.28;1.08;;;;;;;;;;5071557;28;20017;-41
2024/01/13 07:43:20;;;;;;;2.08;0.80;;;;;;;;;;5071381;28;20085;-41
2024/01/13 07:45:47;;;;;;;6.53;1.23;;;;;;;;;;5071250;28;20658;-41
2024/01/13 07:48:14;;;;;;;1.85;0.70;;;;;;;;;;5071312;28;20028;-41
2024/01/13 07:50:41;;;;;;;3.47;1.13;;;;;;;;;;5071278;28;20133;-41
2024/01/13 07:53:08;;;;;;;5.90;1.10;;;;;;;;;;5071225;28;20471;-41
2024/01/13 07:55:35;;;;;;;2.65;0.68;;;;;;;;;;5071405;28;20032;-41
2024/01/13 07:58:02;;;;;;;4.72;1.00;;;;;;;;;;5069816;28;20040;-40
2024/01/13 08:00:29;;;;;;;3.65;0.80;;;;;;;;;;5071103;28;20471;-40
2024/01/13 08:02:56;;;;;;;6.30;1.33;;;;;;;;;;5071396;28;20146;-40
2024/01/13 08:05:23;;;;;;;4.00;1.00;;;;;;;;;;5071333;28;20095;-40
2024/01/13 08:07:50;;;;;;;3.63;1.00;;;;;;;;;;5071394;28;20501;-39
2024/01/13 08:10:17;;;;;;;3.60;0.88;;;;;;;;;;5071341;28;20024;-38
2024/01/13 08:12:44;;;;;;;2.78;1.00;;;;;;;;;;5071147;28;20024;-38
2024/01/13 08:15:11;;;;;;;4.25;1.10;;;;;;;;;;5071287;28;20019;-38
2024/01/13 08:17:38;;;;;;;1.88;0.80;;;;;;;;;;5071296;28;20106;-40
2024/01/13 08:20:05;;;;;;;2.67;1.10;;;;;;;;;;5071260;28;20058;-38
2024/01/13 08:22:32;;;;;;;1.98;0.98;;;;;;;;;;5071384;28;20032;-38
2024/01/13 08:24:59;;;;;;;4.43;1.20;;;;;;;;;;5074714;28;20029;-40
2024/01/13 08:27:26;;;;;;;4.97;0.80;;;;;;;;;;5074654;28;20059;-38
2024/01/13 08:29:53;;;;;;;3.83;1.20;;;;;;;;;;5074339;28;20043;-38
2024/01/13 08:32:20;;;;;;;4.00;1.10;;;;;;;;;;5074866;28;20031;-39
2024/01/13 08:34:47;;;;;;;3.28;1.17;;;;;;;;;;5074790;28;20039;-40
2024/01/13 08:37:14;;;;;;;3.25;0.90;;;;;;;;;;5074818;28;20038;-40
2024/01/13 08:39:41;;;;;;;4.70;0.90;;;;;;;;;;5074688;28;20025;-39
2024/01/13 08:42:08;;;;;;;4.57;0.80;;;;;;;;;;5073306;28;20494;-40
2024/01/13 08:44:35;;;;;;;4.15;1.02;;;;;;;;;;5074670;28;20056;-40
2024/01/13 08:47:02;;;;;;;1.20;0.70;;;;;;;;;;5074512;28;20029;-36
2024/01/13 08:49:29;;;;;;;5.13;1.00;;;;;;;;;;5074549;28;20398;-39
2024/01/13 08:51:56;;;;;;;3.10;1.00;;;;;;;;;;5074417;28;20037;-39
2024/01/13 08:54:23;;;;;;;4.57;1.35;;;;;;;;;;5074256;28;20017;-36
2024/01/13 08:56:53;;;;;;;3.45;1.00;;;;;;;;;;5074458;28;20024;-38
2024/01/13 08:59:19;;;;;;;2.60;0.93;;;;;;;;;;5074385;28;20024;-39
2024/01/13 09:01:46;;;;;;;3.78;1.00;;;;;;;;;;5074315;28;20491;-37
2024/01/13 09:04:13;;;;;;;1.80;0.90;;;;;;;;;;5074316;28;20100;-40
2024/01/13 09:06:40;;;;;;;4.82;1.00;;;;;;;;;;5074111;28;20498;-40
2024/01/13 09:09:08;;;;;;;6.10;1.20;;;;;;;;;;5074163;28;20103;-39
2024/01/13 09:11:35;;;;;;;3.00;1.00;;;;;;;;;;5074076;28;20024;-36
2024/01/13 09:14:02;;;;;;;3.35;0.93;;;;;;;;;;5074098;28;20013;-39
2024/01/13 09:16:29;;;;;;;7.57;0.90;;;;;;;;;;5074076;28;20074;-36
2024/01/13 09:18:57;;;;;;;4.35;1.10;;;;;;;;;;5073962;28;20099;-37
2024/01/13 09:21:24;;;;;;;1.88;0.82;;;;;;;;;;5073915;28;20031;-40
2024/01/13 09:23:52;;;;;;;2.85;0.95;;;;;;;;;;5073894;28;20047;-38
2024/01/13 09:26:19;;;;;;;3.47;0.80;;;;;;;;;;5073701;28;20059;-37
2024/01/13 09:28:46;;;;;;;2.70;1.15;;;;;;;;;;5073947;28;20039;-39
2024/01/13 09:31:13;;;;;;;3.22;1.05;;;;;;;;;;5073807;28;20098;-39
2024/01/13 09:33:40;;;;;;;4.00;1.10;;;;;;;;;;5073378;28;20494;-38
2024/01/13 09:36:07;;;;;;;1.50;0.75;;;;;;;;;;5072890;28;20033;-38
2024/01/13 09:38:34;;;;;;;5.20;0.95;;;;;;;;;;5073680;28;20031;-40
2024/01/13 09:41:01;;;;;;;3.08;1.00;;;;;;;;;;5073608;28;20509;-38
2024/01/13 09:43:39;;;;;;;3.40;1.00;;;;;;;;;;5073473;28;20051;-39
2024/01/13 09:46:05;;;;;;;2.67;1.10;;;;;;;;;;5073414;28;20025;-40
2024/01/13 09:48:32;;;;;;;2.70;1.00;;;;;;;;;;5073550;28;20028;-41
2024/01/13 09:51:00;;;;;;;4.88;1.00;;;;;;;;;;5073612;28;20104;-38
2024/01/13 09:53:30;;;;;;;2.30;0.98;;;;;;;;;;5073406;28;20025;-40
2024/01/13 09:56:08;;;;;;;3.40;0.90;;;;;;;;;;5073417;28;20097;-41
2024/01/13 09:58:35;;;;;;;4.07;1.35;;;;;;;;;;5073225;28;20429;-40
2024/01/13 10:01:03;;;;;;;2.58;1.10;;;;;;;;;;5073244;28;20465;-40
2024/01/13 10:03:30;;;;;;;3.35;1.00;;;;;;;;;;5073219;28;20024;-37
2024/01/13 10:09:00;;;;;;;3.78;1.23;;;;;;;;;;5075018;28;20067;-40
2024/01/13 10:11:28;;;;;;;2.53;1.00;;;;;;;;;;5073487;28;20028;-40
2024/01/13 10:14:02;;;;;;;3.22;1.15;;;;;;;;;;5072581;28;20047;-39
2024/01/13 10:16:29;;;;;;;4.53;0.90;;;;;;;;;;5071441;28;20394;-39
2024/01/13 10:18:58;;;;;;;4.45;1.10;;;;;;;;;;5072771;28;20031;-39
2024/01/13 10:21:25;;;;;;;5.32;1.10;;;;;;;;;;5072800;28;20032;-38
2024/01/13 10:23:55;;;;;;;7.05;1.40;;;;;;;;;;5072791;28;20031;-40
2024/01/13 10:26:22;;;;;;;4.07;1.08;;;;;;;;;;5072259;28;20133;-40
2024/01/13 10:28:50;;;;;;;4.32;1.13;;;;;;;;;;5072699;28;20017;-42
2024/01/13 10:31:20;;;;;;;4.35;1.30;;;;;;;;;;5072569;28;20490;-40
2024/01/13 10:33:48;;;;;;;4.78;1.25;;;;;;;;;;5072719;28;20174;-39
2024/01/13 10:36:28;;;;;;;2.85;1.23;;;;;;;;;;5072464;28;20056;-42
2024/01/13 10:38:58;;;;;;;4.30;1.48;;;;;;;;;;5072474;28;20049;-42
2024/01/13 10:41:29;;;;;;;2.78;1.20;;;;;;;;;;5072192;28;20037;-42
2024/01/13 10:43:56;;;;;;;5.83;1.47;;;;;;;;;;5072446;28;20021;-39
2024/01/13 10:46:25;;;;;;;4.30;0.98;;;;;;;;;;5072007;28;20028;-41
2024/01/13 10:48:59;;;;;;;4.50;1.33;;;;;;;;;;5072227;28;20542;-37
2024/01/13 10:51:26;;;;;;;4.28;1.40;;;;;;;;;;5072064;28;20032;-40
2024/01/13 10:53:54;;;;;;;4.15;1.35;;;;;;;;;;5072153;28;20111;-40
2024/01/13 10:56:21;;;;;;;3.80;1.45;;;;;;;;;;5072104;28;20033;-40
2024/01/13 10:58:49;;;;;;;4.95;1.65;;;;;;;;;;5072146;28;20026;-41
2024/01/13 11:01:16;;;;;;;6.47;1.48;;;;;;;;;;5072175;28;20025;-42
2024/01/13 11:03:44;;;;;;;3.72;1.27;;;;;;;;;;5072004;28;20031;-40
2024/01/13 11:06:11;;;;;;;5.32;1.75;;;;;;;;;;5071911;28;20107;-41
2024/01/13 11:08:38;;;;;;;4.65;1.55;;;;;;;;;;5071993;28;20482;-41
2024/01/13 11:11:07;;;;;;;5.10;1.50;;;;;;;;;;5087413;28;20028;-41
2024/01/13 11:13:44;;;;;;;3.67;1.30;;;;;;;;;;5071720;28;20103;-40
2024/01/13 11:16:13;;;;;;;8.13;1.48;;;;;;;;;;5071937;28;20028;-40
2024/01/13 11:18:48;;;;;;;4.90;1.20;;;;;;;;;;5071926;28;20039;-39
2024/01/13 11:21:22;;;;;;;4.20;1.40;;;;;;;;;;5071793;28;20048;-39
2024/01/13 11:23:55;;;;;;;4.07;1.60;;;;;;;;;;5071912;28;20149;-38
2024/01/13 11:26:28;;;;;;;2.95;1.10;;;;;;;;;;5056886;28;20490;-40
2024/01/13 11:28:56;;;;;;;4.45;1.25;;;;;;;;;;5051695;28;20391;-40
2024/01/13 11:31:30;;;;;;;3.97;1.25;;;;;;;;;;5051217;28;20029;-39
2024/01/13 11:33:58;;;;;;;5.72;1.25;;;;;;;;;;5051524;28;20360;-38
2024/01/13 11:36:25;;;;;;;3.15;0.98;;;;;;;;;;5051613;28;20040;-39
2024/01/13 11:38:52;;;;;;;4.18;1.17;;;;;;;;;;5051518;28;20033;-41
2024/01/13 11:41:18;;;;;;;5.95;1.50;;;;;;;;;;5051542;28;20040;-41
2024/01/13 11:43:46;;;;;;;8.93;1.38;;;;;;;;;;5051412;28;20025;-40
2024/01/13 11:46:16;;;;;;;5.03;1.58;;;;;;;;;;5051356;28;20103;-39
2024/01/13 11:48:43;;;;;;;7.03;1.85;;;;;;;;;;5051306;28;20040;-41
2024/01/13 11:51:18;;;;;;;6.70;1.67;;;;;;;;;;5051279;28;20052;-41
2024/01/13 11:53:46;;;;;;;7.43;1.80;;;;;;;;;;5051181;28;20033;-41
2024/01/13 11:56:13;;;;;;;4.18;1.20;;;;;;;;;;5051308;28;20482;-41
2024/01/13 11:58:41;;;;;;;4.30;1.00;;;;;;;;;;5053701;28;20040;-39
2024/01/13 12:01:09;;;;;;;4.68;1.10;;;;;;;;;;5055593;28;20029;-42
2024/01/13 12:03:38;;;;;;;3.58;1.02;;;;;;;;;;5055358;28;20032;-41
2024/01/13 12:06:05;;;;;;;4.90;1.35;;;;;;;;;;5055328;28;20025;-40
2024/01/13 12:08:32;;;;;;;2.70;1.00;;;;;;;;;;5055356;28;20132;-41
2024/01/13 12:10:59;;;;;;;2.33;0.90;;;;;;;;;;5055314;28;20024;-41
2024/01/13 12:13:26;;;;;;;3.53;1.02;;;;;;;;;;5055267;28;20408;-38
2024/01/13 12:16:04;;;;;;;3.65;0.98;;;;;;;;;;5055179;28;20112;-41
2024/01/13 12:18:30;;;;;;;2.97;1.00;;;;;;;;;;5055150;28;20025;-41
2024/01/13 12:20:58;;;;;;;5.32;0.95;;;;;;;;;;5069427;28;20379;-42
2024/01/13 12:23:25;;;;;;;4.38;1.10;;;;;;;;;;5075045;28;20028;-39
2024/01/13 12:25:53;;;;;;;4.43;1.00;;;;;;;;;;5074918;28;20027;-37
2024/01/13 12:28:20;;;;;;;4.53;1.00;;;;;;;;;;5074903;28;20503;-40
2024/01/13 12:30:48;;;;;;;5.80;1.30;;;;;;;;;;5074983;28;20021;-39
2024/01/13 12:33:23;;;;;;;7.00;1.00;;;;;;;;;;5074660;28;20139;-41
2024/01/13 12:35:59;;;;;;;2.97;1.10;;;;;;;;;;5074753;28;20032;-39
2024/01/13 12:38:30;;;;;;;4.05;1.20;;;;;;;;;;5074863;28;20028;-40
2024/01/13 12:40:57;;;;;;;5.03;0.90;;;;;;;;;;5074772;28;20052;-39
2024/01/13 12:43:25;;;;;;;7.20;1.30;;;;;;;;;;5074493;28;20040;-40
2024/01/13 12:45:54;;;;;;;7.03;1.17;;;;;;;;;;5073975;28;20044;-39
2024/01/13 12:48:21;;;;;;;8.10;1.13;;;;;;;;;;5064895;28;20055;-38
2024/01/13 12:50:48;;;;;;;8.38;1.10;;;;;;;;;;5071573;28;20103;-42
2024/01/13 12:53:15;;;;;;;5.53;1.20;;;;;;;;;;5063008;28;20035;-43
2024/01/13 12:55:42;;;;;;;3.92;1.00;;;;;;;;;;5061763;28;20044;-41
2024/01/13 12:58:10;;;;;;;2.63;1.00;;;;;;;;;;5063721;28;20032;-42
2024/01/13 13:00:37;;;;;;;6.88;0.98;;;;;;;;;;5064294;28;20037;-42
2024/01/13 13:03:04;;;;;;;6.93;0.93;;;;;;;;;;5063742;28;20039;-42
2024/01/13 13:05:31;;;;;;;7.05;0.98;;;;;;;;;;5052194;28;20051;-41
2024/01/13 13:07:58;;;;;;;9.77;0.98;;;;;;;;;;5070216;28;20526;-44
2024/01/13 13:10:25;;;;;;;4.40;0.68;;;;;;;;;;5072430;28;20440;-43
2024/01/13 13:12:52;;;;;;;2.97;0.80;;;;;;;;;;5068762;28;20032;-43
2024/01/13 13:15:19;;;;;;;7.10;0.77;;;;;;;;;;5065488;28;20033;-44
2024/01/13 13:17:46;;;;;;;2.83;0.70;;;;;;;;;;5072399;28;20020;-43
2024/01/13 13:20:13;;;;;;;3.00;0.80;;;;;;;;;;5072688;28;20029;-43
2024/01/13 13:22:40;;;;;;;4.53;1.00;;;;;;;;;;5073588;28;20033;-43
2024/01/13 13:25:08;;;;;;;5.10;0.85;;;;;;;;;;5073420;28;20025;-43
2024/01/13 13:27:35;;;;;;;3.35;0.82;;;;;;;;;;5070807;28;20055;-44
2024/01/13 13:30:04;;;;;;;2.70;0.77;;;;;;;;;;5071160;28;20089;-44
2024/01/13 13:32:32;;;;;;;7.13;0.82;;;;;;;;;;5062480;28;20040;-44
2024/01/13 13:34:59;;;;;;;6.43;0.82;;;;;;;;;;5059172;28;20506;-44
2024/01/13 13:37:26;;;;;;;4.68;0.70;;;;;;;;;;5055439;28;20029;-44
2024/01/13 13:39:52;;;;;;;7.32;0.93;;;;;;;;;;5053297;28;20029;-44
2024/01/13 13:42:19;;;;;;;7.40;0.93;;;;;;;;;;5061653;28;20028;-44
2024/01/13 13:44:46;;;;;;;6.97;1.00;;;;;;;;;;5061823;28;20387;-44
2024/01/13 13:47:13;;;;;;;8.63;1.00;;;;;;;;;;5058525;28;20509;-44
2024/01/13 13:49:40;;;;;;;8.98;1.10;;;;;;;;;;5061520;28;20063;-44
2024/01/13 13:52:08;;;;;;;11.30;1.20;;;;;;;;;;5072755;28;20052;-44
2024/01/13 13:54:35;;;;;;;7.68;1.00;;;;;;;;;;5062419;28;20029;-44
2024/01/13 13:57:02;;;;;;;5.32;1.13;;;;;;;;;;5068106;28;20084;-44
2024/01/13 13:59:28;;;;;;;16.27;1.92;;;;;;;;;;5072738;28;20115;-44
2024/01/13 14:01:55;;;;;;;29.75;2.20;;;;;;;;;;5069840;28;20491;-43
2024/01/13 14:04:22;;;;;;;17.15;1.48;;;;;;;;;;5072586;28;20458;-43
2024/01/13 14:06:49;;;;;;;8.70;1.20;;;;;;;;;;5072694;28;20024;-42
2024/01/13 14:09:16;;;;;;;8.30;1.40;;;;;;;;;;5072728;28;20029;-42
2024/01/13 14:11:43;;;;;;;14.18;1.40;;;;;;;;;;5072899;28;20025;-43
2024/01/13 14:14:11;;;;;;;9.55;1.25;;;;;;;;;;5073001;28;20099;-42
2024/01/13 14:16:38;;;;;;;5.90;0.80;;;;;;;;;;5072914;28;20478;-42
2024/01/13 14:19:05;;;;;;;8.18;1.15;;;;;;;;;;5072891;28;20031;-43
2024/01/13 14:21:32;;;;;;;9.55;1.27;;;;;;;;;;5072217;28;20029;-42
2024/01/13 14:23:59;;;;;;;6.75;1.00;;;;;;;;;;5072904;28;20025;-42
2024/01/13 14:26:26;;;;;;;7.32;0.90;;;;;;;;;;5072535;28;20127;-43
2024/01/13 14:28:53;;;;;;;4.50;0.85;;;;;;;;;;5072790;28;20029;-42
2024/01/13 14:31:20;;;;;;;5.47;0.85;;;;;;;;;;5072609;28;20052;-42
2024/01/13 14:33:47;;;;;;;4.68;0.75;;;;;;;;;;5072652;28;20021;-43
2024/01/13 14:36:14;;;;;;;6.18;1.25;;;;;;;;;;5072511;28;20043;-43
2024/01/13 14:38:41;;;;;;;7.82;1.02;;;;;;;;;;5072594;28;20055;-42
2024/01/13 14:41:08;;;;;;;7.55;0.88;;;;;;;;;;5072425;28;20502;-42
2024/01/13 14:43:35;;;;;;;5.50;0.90;;;;;;;;;;5072511;28;20546;-42
2024/01/13 14:46:02;;;;;;;8.25;1.20;;;;;;;;;;5070912;28;20114;-43